Haddon, Indiana
Current Conditions -  °F | °C
As of 1:15 AM on Thursday 29 Jan 2015 (Local Time) from KRSV Reporting Station
Scattered Clouds Scattered Clouds  
Wind Chill: 32°   Ceiling: Unl
Heat Index: 40°   Visibility: 10mi
Dew Point: 26°   Wind: 13mph
Humidity: 59%   Direction: 170°S
Pressure: 29.95"   Gusts: 18mph
Location:  38.9636°N, 87.3568°W
Report Text: KRSV 290615Z AUTO 17011G16KT 10SM SCT120 04/M03 A2995 RMK AO2 T00431032
Loading
Personal Weather Stations






























Interactive Weather Map New forecast layout! Learn more

10-Day Weather Forecast

Advertisements
Track Severe Weather on mobile